createdAt,value
2023-03-12T00:00:32.433Z,3.60
2023-03-12T00:01:32.387Z,4.20
2023-03-12T00:02:32.406Z,3.80
2023-03-12T00:03:32.389Z,3.90
2023-03-12T00:04:32.489Z,3.50
2023-03-12T00:05:32.354Z,3.20
2023-03-12T00:06:32.333Z,3.60
2023-03-12T00:07:32.316Z,3.90
2023-03-12T00:08:32.308Z,3.30
2023-03-12T00:09:32.312Z,3.10
2023-03-12T00:10:32.299Z,3.40
2023-03-12T00:11:32.299Z,3.60
2023-03-12T00:12:32.255Z,3.70
2023-03-12T00:13:32.226Z,3.40
2023-03-12T00:14:32.226Z,3.20
2023-03-12T00:15:32.209Z,3.00
2023-03-12T00:16:32.202Z,3.60
2023-03-12T00:17:32.198Z,3.20
2023-03-12T00:18:32.177Z,3.40
2023-03-12T00:19:32.153Z,3.10
2023-03-12T00:20:32.148Z,3.70
2023-03-12T00:21:32.148Z,3.80
2023-03-12T00:22:32.157Z,3.40
2023-03-12T00:23:32.112Z,3.70
2023-03-12T00:24:32.096Z,4.10
2023-03-12T00:25:32.077Z,3.30
2023-03-12T00:26:32.098Z,3.10
2023-03-12T00:27:32.066Z,3.20
2023-03-12T00:28:32.044Z,3.20
2023-03-12T00:29:32.027Z,3.00
2023-03-12T00:30:32.028Z,3.10
2023-03-12T00:31:32.046Z,3.30
2023-03-12T00:32:32.145Z,3.30
2023-03-12T00:33:31.981Z,3.10
2023-03-12T00:34:31.985Z,3.00
2023-03-12T00:35:31.989Z,3.20
2023-03-12T00:36:31.957Z,3.20
2023-03-12T00:37:32.168Z,2.80
2023-03-12T00:38:31.912Z,3.00
2023-03-12T00:39:31.960Z,3.30
2023-03-12T00:40:31.893Z,2.70
2023-03-12T00:41:31.887Z,3.40
2023-03-12T00:42:31.860Z,3.30
2023-03-12T00:43:31.857Z,3.10
2023-03-12T00:44:31.842Z,2.90
2023-03-12T00:45:31.817Z,3.00
2023-03-12T00:46:31.912Z,2.90
2023-03-12T00:47:31.810Z,2.90
2023-03-12T00:48:31.789Z,2.60
2023-03-12T00:49:31.756Z,2.80
2023-03-12T00:50:31.753Z,2.70
2023-03-12T00:51:31.751Z,2.80
2023-03-12T00:52:31.774Z,2.60
2023-03-12T00:53:31.751Z,2.90
2023-03-12T00:54:31.757Z,2.60
2023-03-12T00:55:31.680Z,2.30
2023-03-12T00:56:31.666Z,2.20
2023-03-12T00:57:31.669Z,2.10
2023-03-12T00:58:31.654Z,2.40
2023-03-12T00:59:31.633Z,2.30
2023-03-12T01:01:42.810Z,2.40
2023-03-12T01:02:42.802Z,2.20
2023-03-12T01:03:42.850Z,2.40
2023-03-12T01:04:42.782Z,2.50
2023-03-12T01:05:42.744Z,2.10
2023-03-12T01:06:42.728Z,2.30
2023-03-12T01:07:42.897Z,2.00
2023-03-12T01:08:42.723Z,2.20
2023-03-12T01:09:42.715Z,2.30
2023-03-12T01:10:42.692Z,2.50
2023-03-12T01:11:42.668Z,2.30
2023-03-12T01:12:42.676Z,2.00
2023-03-12T01:13:42.635Z,2.00
2023-03-12T01:14:42.620Z,2.00
2023-03-12T01:15:42.603Z,2.40
2023-03-12T01:16:42.615Z,2.20
2023-03-12T01:17:42.667Z,2.30
2023-03-12T01:18:42.587Z,2.50
2023-03-12T01:19:42.591Z,2.10
2023-03-12T01:20:42.572Z,2.40
2023-03-12T01:21:42.541Z,2.20
2023-03-12T01:22:42.521Z,1.90
2023-03-12T01:23:43.465Z,2.20
2023-03-12T01:24:42.506Z,2.20
2023-03-12T01:25:42.488Z,1.90
2023-03-12T01:26:42.502Z,2.10
2023-03-12T01:27:42.459Z,1.90
2023-03-12T01:28:42.542Z,2.00
2023-03-12T01:29:42.429Z,2.10
2023-03-12T01:30:42.419Z,1.90
2023-03-12T01:31:42.418Z,1.90
2023-03-12T01:32:42.438Z,2.00
2023-03-12T01:33:42.393Z,2.10
2023-03-12T01:34:42.390Z,2.20
2023-03-12T01:35:42.520Z,1.60
2023-03-12T01:36:42.342Z,2.10
2023-03-12T01:37:42.338Z,1.90
2023-03-12T01:38:42.319Z,1.90
2023-03-12T01:39:42.290Z,1.80
2023-03-12T01:40:42.298Z,1.90
2023-03-12T01:41:42.277Z,2.00
2023-03-12T01:42:42.291Z,2.20
2023-03-12T01:43:42.246Z,2.10
2023-03-12T01:44:42.237Z,1.90
2023-03-12T01:45:42.273Z,1.70
2023-03-12T01:46:42.198Z,1.90
2023-03-12T01:47:42.193Z,1.90
2023-03-12T01:48:42.183Z,1.80
2023-03-12T01:49:42.204Z,1.80
2023-03-12T01:50:42.153Z,2.00
2023-03-12T01:51:42.160Z,1.80
2023-03-12T01:52:42.137Z,1.70
2023-03-12T01:53:42.117Z,1.80
2023-03-12T01:54:42.094Z,1.80
2023-03-12T01:55:42.083Z,1.90
2023-03-12T01:56:42.089Z,1.80
2023-03-12T01:57:42.097Z,2.00
2023-03-12T01:58:42.080Z,1.90
2023-03-12T01:59:42.036Z,1.80
2023-03-12T02:00:42.038Z,1.70
2023-03-12T02:01:41.997Z,2.00
2023-03-12T02:02:41.985Z,1.60
2023-03-12T02:03:42.061Z,2.00
2023-03-12T02:04:41.970Z,1.70
2023-03-12T02:05:41.947Z,2.40
2023-03-12T02:06:41.928Z,1.50
2023-03-12T02:07:41.965Z,1.60
2023-03-12T02:08:41.906Z,2.00
2023-03-12T02:09:41.912Z,1.70
2023-03-12T02:10:41.892Z,1.70
2023-03-12T02:11:41.897Z,1.90
2023-03-12T02:12:41.858Z,1.80
2023-03-12T02:13:41.876Z,1.80
2023-03-12T02:14:41.833Z,1.80
2023-03-12T02:15:41.833Z,2.10
2023-03-12T02:16:41.834Z,1.90
2023-03-12T02:17:41.791Z,2.50
2023-03-12T02:18:41.806Z,2.10
2023-03-12T02:19:41.780Z,1.80
2023-03-12T02:20:41.764Z,1.80
2023-03-12T02:21:41.748Z,2.00
2023-03-12T02:23:02.743Z,1.70
2023-03-12T02:23:41.750Z,1.80
2023-03-12T02:24:41.750Z,2.10
2023-03-12T02:25:41.683Z,1.70
2023-03-12T02:26:41.674Z,2.20
2023-03-12T02:27:41.664Z,2.00
2023-03-12T02:28:41.640Z,1.50
2023-03-12T02:29:41.672Z,1.60
2023-03-12T02:30:41.629Z,2.10
2023-03-12T02:31:41.640Z,1.70
2023-03-12T02:32:41.628Z,1.70
2023-03-12T02:33:41.573Z,1.70
2023-03-12T02:34:41.602Z,1.70
2023-03-12T02:35:41.561Z,1.70
2023-03-12T02:36:41.556Z,1.90
2023-03-12T02:37:41.541Z,1.60
2023-03-12T02:38:41.535Z,2.00
2023-03-12T02:39:41.504Z,1.60
2023-03-12T02:40:41.551Z,1.70
2023-03-12T02:41:41.481Z,1.90
2023-03-12T02:42:41.472Z,1.90
2023-03-12T02:43:41.484Z,1.70
2023-03-12T02:44:41.453Z,2.00
2023-03-12T02:45:41.452Z,2.10
2023-03-12T02:46:41.430Z,2.30
2023-03-12T02:47:41.406Z,1.60
2023-03-12T02:48:41.382Z,1.80
2023-03-12T02:49:41.377Z,1.60
2023-03-12T02:50:41.364Z,2.00
2023-03-12T02:51:41.344Z,2.10
2023-03-12T02:52:41.375Z,1.60
2023-03-12T02:53:41.335Z,1.50
2023-03-12T02:54:41.316Z,1.50
2023-03-12T02:55:41.316Z,1.80
2023-03-12T02:56:41.287Z,1.90
2023-03-12T02:57:41.276Z,1.70
2023-03-12T02:58:41.919Z,1.60
2023-03-12T02:59:41.245Z,1.80
2023-03-12T03:00:41.240Z,2.10
2023-03-12T03:01:41.269Z,1.80
2023-03-12T03:02:41.235Z,1.60
2023-03-12T03:03:41.311Z,1.60
2023-03-12T03:04:41.190Z,1.70
2023-03-12T03:05:41.169Z,2.40
2023-03-12T03:06:41.204Z,1.70
2023-03-12T03:07:41.137Z,2.10
2023-03-12T03:08:41.777Z,2.10
2023-03-12T03:09:41.118Z,2.10
2023-03-12T03:10:41.095Z,1.80
2023-03-12T03:11:41.113Z,1.90
2023-03-12T03:12:41.089Z,2.30
2023-03-12T03:13:41.052Z,1.80
2023-03-12T03:14:41.038Z,1.40
2023-03-12T03:15:41.086Z,1.70
2023-03-12T03:16:41.018Z,2.10
2023-03-12T03:17:41.205Z,2.30
2023-03-12T03:18:40.993Z,1.60
2023-03-12T03:19:40.999Z,1.80
2023-03-12T03:20:40.983Z,2.00
2023-03-12T03:21:40.973Z,1.70
2023-03-12T03:22:40.960Z,1.40
2023-03-12T03:23:40.942Z,1.70
2023-03-12T03:24:40.908Z,2.00
2023-03-12T03:25:40.912Z,1.80
2023-03-12T03:26:40.894Z,2.10
2023-03-12T03:27:40.967Z,2.00
2023-03-12T03:29:40.845Z,1.60
2023-03-12T03:30:40.846Z,1.50
2023-03-12T03:31:40.873Z,2.60
2023-03-12T03:32:40.893Z,1.60
2023-03-12T03:33:40.842Z,1.50
2023-03-12T03:34:40.798Z,1.90
2023-03-12T03:35:40.855Z,1.60
2023-03-12T03:36:40.756Z,1.70
2023-03-12T03:37:40.797Z,1.80
2023-03-12T03:38:40.765Z,2.10
2023-03-12T03:39:48.296Z,1.80
2023-03-12T03:40:40.713Z,1.80
2023-03-12T03:41:40.703Z,1.70
2023-03-12T03:42:40.692Z,1.90
2023-03-12T03:43:40.667Z,2.00
2023-03-12T03:44:40.648Z,2.10
2023-03-12T03:45:40.662Z,2.10
2023-03-12T03:46:40.701Z,2.00
2023-03-12T03:47:40.661Z,1.40
2023-03-12T03:48:40.646Z,1.60
2023-03-12T03:49:40.585Z,1.80
2023-03-12T03:50:40.571Z,1.70
2023-03-12T03:51:40.572Z,1.70
2023-03-12T03:52:40.569Z,1.50
2023-03-12T03:53:40.541Z,1.80
2023-03-12T03:54:40.520Z,1.80
2023-03-12T03:55:40.550Z,1.60
2023-03-12T03:56:40.503Z,1.70
2023-03-12T03:57:40.494Z,1.70
2023-03-12T03:58:40.503Z,1.40
2023-03-12T03:59:40.459Z,1.50
2023-03-12T04:00:40.460Z,1.70
2023-03-12T04:01:40.433Z,2.10
2023-03-12T04:02:40.442Z,1.80
2023-03-12T04:03:40.517Z,1.40
2023-03-12T04:04:40.592Z,1.70
2023-03-12T04:05:40.415Z,1.80
2023-03-12T04:06:40.364Z,1.70
2023-03-12T04:07:40.356Z,1.80
2023-03-12T04:08:40.448Z,1.60
2023-03-12T04:09:40.337Z,1.40
2023-03-12T04:10:40.296Z,1.60
2023-03-12T04:11:40.305Z,1.60
2023-03-12T04:12:40.277Z,1.30
2023-03-12T04:13:40.333Z,1.40
2023-03-12T04:14:40.261Z,1.50
2023-03-12T04:15:40.274Z,1.80
2023-03-12T04:16:40.223Z,2.20
2023-03-12T04:17:40.260Z,1.70
2023-03-12T04:18:40.207Z,1.60
2023-03-12T04:19:40.237Z,1.40
2023-03-12T04:20:40.189Z,1.70
2023-03-12T04:21:40.165Z,1.60
2023-03-12T04:22:40.139Z,2.00
2023-03-12T04:23:40.150Z,1.80
2023-03-12T04:24:40.131Z,2.20
2023-03-12T04:25:40.123Z,2.00
2023-03-12T04:26:40.088Z,1.70
2023-03-12T04:27:40.085Z,1.60
2023-03-12T04:28:40.077Z,1.60
2023-03-12T04:29:40.085Z,2.30
2023-03-12T04:30:40.035Z,1.70
2023-03-12T04:31:40.123Z,1.60
2023-03-12T04:32:40.045Z,1.70
2023-03-12T04:33:40.029Z,1.60
2023-03-12T04:34:40.000Z,1.60
2023-03-12T04:35:40.126Z,1.50
2023-03-12T04:36:39.981Z,1.40
2023-03-12T04:37:39.977Z,1.70
2023-03-12T04:38:39.950Z,1.40
2023-03-12T04:39:39.933Z,1.50
2023-03-12T04:40:40.068Z,1.70
2023-03-12T04:41:39.913Z,1.70
2023-03-12T04:42:39.897Z,1.70
2023-03-12T04:43:39.888Z,1.40
2023-03-12T04:44:39.886Z,1.70
2023-03-12T04:45:39.862Z,1.60
2023-03-12T04:46:39.935Z,1.70
2023-03-12T04:47:39.836Z,1.60
2023-03-12T04:48:39.824Z,1.40
2023-03-12T04:49:39.828Z,1.60
2023-03-12T04:50:39.786Z,1.70
2023-03-12T04:51:39.783Z,1.70
2023-03-12T04:52:39.774Z,1.50
2023-03-12T04:53:39.828Z,1.70
2023-03-12T04:54:39.761Z,1.60
2023-03-12T04:55:39.742Z,1.60
2023-03-12T04:56:39.755Z,1.60
2023-03-12T04:57:39.708Z,1.50
2023-03-12T04:58:39.727Z,1.60
2023-03-12T04:59:39.677Z,1.70
2023-03-12T05:00:39.709Z,1.70
2023-03-12T05:01:39.672Z,1.60
2023-03-12T05:02:39.685Z,1.70
2023-03-12T05:03:39.688Z,1.60
2023-03-12T05:04:39.623Z,1.60
2023-03-12T05:05:39.606Z,1.70
2023-03-12T05:06:39.581Z,2.00
2023-03-12T05:07:39.577Z,2.10
2023-03-12T05:08:39.598Z,1.70
2023-03-12T05:09:39.590Z,2.10
2023-03-12T05:10:39.549Z,1.70
2023-03-12T05:11:39.981Z,1.60
2023-03-12T05:12:39.504Z,1.90
2023-03-12T05:13:39.539Z,1.70
2023-03-12T05:14:39.475Z,1.70
2023-03-12T05:15:39.469Z,1.80
2023-03-12T05:16:39.501Z,1.70
2023-03-12T05:17:39.452Z,1.60
2023-03-12T05:18:39.419Z,1.50
2023-03-12T05:19:39.431Z,1.60
2023-03-12T05:20:39.427Z,1.50
2023-03-12T05:21:39.420Z,1.70
2023-03-12T05:22:39.399Z,1.50
2023-03-12T05:23:39.395Z,1.50
2023-03-12T05:24:39.469Z,1.60
2023-03-12T05:25:39.443Z,1.60
2023-03-12T05:26:39.411Z,2.00
2023-03-12T05:27:39.328Z,1.50
2023-03-12T05:28:39.374Z,2.00
2023-03-12T05:29:39.327Z,1.60
2023-03-12T05:30:39.282Z,1.40
2023-03-12T05:31:39.333Z,1.80
2023-03-12T05:32:39.385Z,1.60
2023-03-12T05:33:39.243Z,2.20
2023-03-12T05:34:39.294Z,1.80
2023-03-12T05:35:39.245Z,1.40
2023-03-12T05:36:39.210Z,1.70
2023-03-12T05:37:39.193Z,1.70
2023-03-12T05:38:39.373Z,2.00
2023-03-12T05:39:39.338Z,1.60
2023-03-12T05:40:39.162Z,1.40
2023-03-12T05:41:39.135Z,1.50
2023-03-12T05:42:39.157Z,1.60
2023-03-12T05:44:14.363Z,1.50
2023-03-12T05:44:39.097Z,1.60
2023-03-12T05:45:39.134Z,2.20
2023-03-12T05:46:39.084Z,1.40
2023-03-12T05:47:39.054Z,1.50
2023-03-12T05:48:39.072Z,1.60
2023-03-12T05:49:39.019Z,1.40
2023-03-12T05:50:39.019Z,1.50
2023-03-12T05:51:46.532Z,1.60
2023-03-12T05:52:38.980Z,1.70
2023-03-12T05:53:38.970Z,1.60
2023-03-12T05:54:47.496Z,1.60
2023-03-12T05:55:38.950Z,1.40
2023-03-12T05:56:38.919Z,1.70
2023-03-12T05:57:38.930Z,1.40
2023-03-12T05:58:38.920Z,1.90
2023-03-12T05:59:38.901Z,1.50
2023-03-12T06:00:38.889Z,1.80
2023-03-12T06:01:38.872Z,1.60
2023-03-12T06:02:38.843Z,1.70
2023-03-12T06:03:38.868Z,1.30
2023-03-12T06:04:38.860Z,2.40
2023-03-12T06:05:38.804Z,1.80
2023-03-12T06:06:38.798Z,1.80
2023-03-12T06:07:38.789Z,2.30
2023-03-12T06:08:38.772Z,2.00
2023-03-12T06:09:38.781Z,1.70
2023-03-12T06:10:38.782Z,1.70
2023-03-12T06:11:38.774Z,1.90
2023-03-12T06:12:38.726Z,2.20
2023-03-12T06:13:38.756Z,1.60
2023-03-12T06:14:38.670Z,1.90
2023-03-12T06:15:38.713Z,2.00
2023-03-12T06:16:38.698Z,1.90
2023-03-12T06:17:38.659Z,1.90
2023-03-12T06:18:38.659Z,2.00
2023-03-12T06:19:38.657Z,2.10
2023-03-12T06:20:38.616Z,2.10
2023-03-12T06:21:38.645Z,2.20
2023-03-12T06:22:38.626Z,2.30
2023-03-12T06:23:38.574Z,1.80
2023-03-12T06:24:38.582Z,1.90
2023-03-12T06:25:38.543Z,2.00
2023-03-12T06:26:38.523Z,2.10
2023-03-12T06:27:38.535Z,2.00
2023-03-12T06:28:38.520Z,1.90
2023-03-12T06:29:38.621Z,2.20
2023-03-12T06:30:38.506Z,2.00
2023-03-12T06:31:39.064Z,2.00
2023-03-12T06:32:38.503Z,2.80
2023-03-12T06:33:38.445Z,2.10
2023-03-12T06:34:38.447Z,1.90
2023-03-12T06:35:38.520Z,2.20
2023-03-12T06:36:38.454Z,1.90
2023-03-12T06:37:38.412Z,1.80
2023-03-12T06:38:38.399Z,2.00
2023-03-12T06:39:38.364Z,2.10
2023-03-12T06:40:38.354Z,2.00
2023-03-12T06:41:38.396Z,1.90
2023-03-12T06:42:38.361Z,1.90
2023-03-12T06:43:38.342Z,2.50
2023-03-12T06:44:38.353Z,2.20
2023-03-12T06:45:38.296Z,2.10
2023-03-12T06:46:38.355Z,2.00
2023-03-12T06:47:38.268Z,1.90
2023-03-12T06:48:38.255Z,1.80
2023-03-12T06:49:38.241Z,2.00
2023-03-12T06:50:38.235Z,1.70
2023-03-12T06:51:38.249Z,2.00
2023-03-12T06:52:38.196Z,1.80
2023-03-12T06:53:40.428Z,2.30
2023-03-12T06:54:38.173Z,2.10
2023-03-12T06:55:38.172Z,2.70
2023-03-12T06:56:38.159Z,2.00
2023-03-12T06:57:38.130Z,2.20
2023-03-12T06:58:38.110Z,2.20
2023-03-12T06:59:38.127Z,2.30
2023-03-12T07:00:38.077Z,2.40
2023-03-12T07:01:38.068Z,2.30
2023-03-12T07:02:38.139Z,2.30
2023-03-12T07:03:38.056Z,2.30
2023-03-12T07:04:38.213Z,2.70
2023-03-12T07:05:38.030Z,2.50
2023-03-12T07:06:38.020Z,2.10
2023-03-12T07:07:38.013Z,2.10
2023-03-12T07:08:37.982Z,2.30
2023-03-12T07:09:38.001Z,1.90
2023-03-12T07:10:37.961Z,2.70
2023-03-12T07:11:38.087Z,2.40
2023-03-12T07:12:37.954Z,2.40
2023-03-12T07:13:37.937Z,2.40
2023-03-12T07:14:37.937Z,2.40
2023-03-12T07:15:37.916Z,2.30
2023-03-12T07:16:37.901Z,2.40
2023-03-12T07:17:37.859Z,2.40
2023-03-12T07:18:37.922Z,2.60
2023-03-12T07:19:37.880Z,2.40
2023-03-12T07:20:37.868Z,2.40
2023-03-12T07:21:37.846Z,2.20
2023-03-12T07:22:37.849Z,2.50
2023-03-12T07:23:37.809Z,2.70
2023-03-12T07:24:37.780Z,2.70
2023-03-12T07:25:37.777Z,2.40
2023-03-12T07:26:37.742Z,2.60
2023-03-12T07:27:37.720Z,2.80
2023-03-12T07:28:37.750Z,2.50
2023-03-12T07:29:37.711Z,2.80
2023-03-12T07:30:37.689Z,2.20
2023-03-12T07:31:37.811Z,2.70
2023-03-12T07:32:37.767Z,2.60
2023-03-12T07:33:37.732Z,2.60
2023-03-12T07:34:37.759Z,2.40
2023-03-12T07:35:37.694Z,2.70
2023-03-12T07:36:37.757Z,2.40
2023-03-12T07:37:37.612Z,2.50
2023-03-12T07:38:37.583Z,2.40
2023-03-12T07:39:37.644Z,2.40
2023-03-12T07:40:37.586Z,2.90
2023-03-12T07:41:37.579Z,2.40
2023-03-12T07:42:37.566Z,2.40
2023-03-12T07:43:37.573Z,2.50
2023-03-12T07:44:37.541Z,2.70
2023-03-12T07:45:37.564Z,2.90
2023-03-12T07:46:37.593Z,2.80
2023-03-12T07:47:37.641Z,2.90
2023-03-12T07:48:37.514Z,3.10
2023-03-12T07:49:37.574Z,2.80
2023-03-12T07:50:37.467Z,3.10
2023-03-12T07:51:37.440Z,2.70
2023-03-12T07:52:37.533Z,2.70
2023-03-12T07:53:37.436Z,2.50
2023-03-12T07:54:37.410Z,2.70
2023-03-12T07:55:37.464Z,2.80
2023-03-12T07:56:37.424Z,2.60
2023-03-12T07:57:37.352Z,2.30
2023-03-12T07:58:37.370Z,2.80
2023-03-12T07:59:37.335Z,2.60
2023-03-12T08:00:37.326Z,2.50
2023-03-12T08:01:37.484Z,2.70
2023-03-12T08:02:37.601Z,2.80
2023-03-12T08:03:37.502Z,2.60
2023-03-12T08:04:44.386Z,2.60
2023-03-12T08:05:37.256Z,2.90
2023-03-12T08:06:37.225Z,2.80
2023-03-12T08:07:37.263Z,2.80
2023-03-12T08:08:37.210Z,2.90
2023-03-12T08:09:37.191Z,2.80
2023-03-12T08:10:37.235Z,2.90
2023-03-12T08:11:37.150Z,2.70
2023-03-12T08:12:37.178Z,2.60
2023-03-12T08:13:37.156Z,2.70
2023-03-12T08:14:37.271Z,3.00
2023-03-12T08:15:37.090Z,2.60
2023-03-12T08:16:37.148Z,2.70
2023-03-12T08:17:37.056Z,2.80
2023-03-12T08:18:37.902Z,3.30
2023-03-12T08:19:37.063Z,2.80
2023-03-12T08:20:37.055Z,2.80
2023-03-12T08:21:37.012Z,2.70
2023-03-12T08:22:37.008Z,2.80
2023-03-12T08:23:44.511Z,2.90
2023-03-12T08:24:36.972Z,2.60
2023-03-12T08:25:36.962Z,2.70
2023-03-12T08:26:36.970Z,2.90
2023-03-12T08:27:36.953Z,2.80
2023-03-12T08:28:44.426Z,2.60
2023-03-12T08:29:44.435Z,2.70
2023-03-12T08:30:36.892Z,2.80
2023-03-12T08:31:36.986Z,2.60
2023-03-12T08:32:37.049Z,2.50
2023-03-12T08:33:36.876Z,2.60
2023-03-12T08:34:36.947Z,2.70
2023-03-12T08:35:36.845Z,3.10
2023-03-12T08:36:36.862Z,2.90
2023-03-12T08:37:36.843Z,2.90
2023-03-12T08:38:36.800Z,2.90
2023-03-12T08:39:36.806Z,3.10
2023-03-12T08:40:36.780Z,3.10
2023-03-12T08:41:36.772Z,3.30
2023-03-12T08:42:36.750Z,3.20
2023-03-12T08:43:36.750Z,3.00
2023-03-12T08:44:36.745Z,3.00
2023-03-12T08:45:36.797Z,3.20
2023-03-12T08:46:36.751Z,3.00
2023-03-12T08:47:36.694Z,2.80
2023-03-12T08:48:36.672Z,3.10
2023-03-12T08:49:36.650Z,3.00
2023-03-12T08:50:36.701Z,3.20
2023-03-12T08:51:36.698Z,3.20
2023-03-12T08:52:36.625Z,2.90
2023-03-12T08:53:36.620Z,3.70
2023-03-12T08:54:36.589Z,3.30
2023-03-12T08:55:36.590Z,3.10
2023-03-12T08:56:36.587Z,3.00
2023-03-12T08:57:36.604Z,3.20
2023-03-12T08:58:36.553Z,3.00
2023-03-12T08:59:36.521Z,3.10
2023-03-12T09:00:36.575Z,3.00
2023-03-12T09:01:36.509Z,2.90
2023-03-12T09:02:36.516Z,3.00
2023-03-12T09:03:36.517Z,3.70
2023-03-12T09:04:36.528Z,3.40
2023-03-12T09:05:36.458Z,3.30
2023-03-12T09:06:36.519Z,3.40
2023-03-12T09:07:36.454Z,3.30
2023-03-12T09:08:36.424Z,3.80
2023-03-12T09:09:36.451Z,3.30
2023-03-12T09:10:36.418Z,3.30
2023-03-12T09:11:36.379Z,3.20
2023-03-12T09:12:36.383Z,3.20
2023-03-12T09:13:54.610Z,3.50
2023-03-12T09:15:05.388Z,3.30
2023-03-12T09:15:38.075Z,3.70
2023-03-12T09:16:36.378Z,3.70
2023-03-12T09:17:36.295Z,3.90
2023-03-12T09:18:38.876Z,3.90
2023-03-12T09:19:36.286Z,3.80
2023-03-12T09:20:36.270Z,3.70
2023-03-12T09:21:36.287Z,4.10
2023-03-12T09:22:36.262Z,3.80
2023-03-12T09:23:36.250Z,4.00
2023-03-12T09:24:36.227Z,4.20
2023-03-12T09:25:36.236Z,4.40
2023-03-12T09:26:36.211Z,4.20
2023-03-12T09:27:36.186Z,4.40
2023-03-12T09:28:36.164Z,3.90
2023-03-12T09:29:46.536Z,4.40
2023-03-12T09:30:37.170Z,4.80
2023-03-12T09:31:36.154Z,4.30
2023-03-12T09:32:36.123Z,4.40
2023-03-12T09:33:36.136Z,4.40
2023-03-12T09:34:36.088Z,4.70
2023-03-12T09:35:36.085Z,4.60
2023-03-12T09:36:36.082Z,4.60
2023-03-12T09:37:36.051Z,4.50
2023-03-12T09:38:36.057Z,4.90
2023-03-12T09:39:36.082Z,4.40
2023-03-12T09:40:36.008Z,4.20
2023-03-12T09:41:35.996Z,4.60
2023-03-12T09:42:35.972Z,5.10
2023-03-12T09:43:35.991Z,4.60
2023-03-12T09:44:36.033Z,4.70
2023-03-12T09:45:35.949Z,4.90
2023-03-12T09:46:35.927Z,5.30
2023-03-12T09:47:35.923Z,4.90
2023-03-12T09:48:35.925Z,5.30
2023-03-12T09:49:35.904Z,4.80
2023-03-12T09:50:37.347Z,5.10
2023-03-12T09:51:35.890Z,5.60
2023-03-12T09:52:35.898Z,5.20
2023-03-12T09:53:35.865Z,5.30
2023-03-12T09:54:35.867Z,5.60
2023-03-12T09:55:35.835Z,5.50
2023-03-12T09:56:35.816Z,5.60
2023-03-12T09:57:35.812Z,5.40
2023-03-12T09:58:35.775Z,5.70
2023-03-12T09:59:35.855Z,5.70
2023-03-12T10:00:35.753Z,6.10
2023-03-12T10:01:35.749Z,5.70
2023-03-12T10:02:35.731Z,6.20
2023-03-12T10:03:35.735Z,6.40
2023-03-12T10:04:48.685Z,6.20
2023-03-12T10:05:36.700Z,6.30
2023-03-12T10:06:35.736Z,6.00
2023-03-12T10:07:35.659Z,6.60
2023-03-12T10:08:35.679Z,6.70
2023-03-12T10:09:35.665Z,6.70
2023-03-12T10:10:35.629Z,6.60
2023-03-12T10:11:35.626Z,6.50
2023-03-12T10:12:35.664Z,6.30
2023-03-12T10:13:35.905Z,6.50
2023-03-12T10:14:35.573Z,6.80
2023-03-12T10:15:35.579Z,6.80
2023-03-12T10:16:35.560Z,6.80
2023-03-12T10:17:35.602Z,6.50
2023-03-12T10:18:35.706Z,6.60
2023-03-12T10:19:35.537Z,7.00
2023-03-12T10:20:35.501Z,6.90
2023-03-12T10:21:35.510Z,6.90
2023-03-12T10:22:35.495Z,6.70
2023-03-12T10:23:35.493Z,7.40
2023-03-12T10:24:35.469Z,6.80
2023-03-12T10:25:35.446Z,7.20
2023-03-12T10:26:35.444Z,6.60
2023-03-12T10:27:35.414Z,7.00
2023-03-12T10:28:35.413Z,7.10
2023-03-12T10:29:35.378Z,6.80
2023-03-12T10:30:35.382Z,6.10
2023-03-12T10:31:35.366Z,6.30
2023-03-12T10:32:35.394Z,6.70
2023-03-12T10:33:35.357Z,6.50
2023-03-12T10:34:35.331Z,6.90
2023-03-12T10:35:35.335Z,6.80
2023-03-12T10:36:35.308Z,7.20
2023-03-12T10:37:35.353Z,6.80
2023-03-12T10:38:35.279Z,6.60
2023-03-12T10:39:35.319Z,7.10
2023-03-12T10:40:35.272Z,6.70
2023-03-12T10:41:35.285Z,7.30
2023-03-12T10:42:35.245Z,7.70
2023-03-12T10:43:35.238Z,7.60
2023-03-12T10:44:35.228Z,8.00
2023-03-12T10:45:35.205Z,8.00
2023-03-12T10:46:35.366Z,8.10
2023-03-12T10:47:35.186Z,9.00
2023-03-12T10:48:35.240Z,8.70
2023-03-12T10:49:35.136Z,9.20
2023-03-12T10:50:35.132Z,9.50
2023-03-12T10:51:35.154Z,10.30
2023-03-12T10:52:35.109Z,10.10
2023-03-12T10:53:35.082Z,10.40
2023-03-12T10:54:35.100Z,10.70
2023-03-12T10:55:35.063Z,10.90
2023-03-12T10:56:35.080Z,11.80
2023-03-12T10:57:35.057Z,12.10
2023-03-12T10:58:35.050Z,12.10
2023-03-12T10:59:35.018Z,12.20
2023-03-12T11:00:35.038Z,12.80
2023-03-12T11:01:35.017Z,12.70
2023-03-12T11:02:34.992Z,12.20
2023-03-12T11:03:34.972Z,13.00
2023-03-12T11:04:34.959Z,13.00
2023-03-12T11:05:35.044Z,13.80
2023-03-12T11:06:34.961Z,12.60
2023-03-12T11:07:34.919Z,13.90
2023-03-12T11:08:34.908Z,13.90
2023-03-12T11:09:34.897Z,13.90
2023-03-12T11:10:34.892Z,14.20
2023-03-12T11:11:34.884Z,13.60
2023-03-12T11:12:34.862Z,14.40
2023-03-12T11:13:34.880Z,14.40
2023-03-12T11:14:34.832Z,15.30
2023-03-12T11:15:34.822Z,16.30
2023-03-12T11:16:34.901Z,14.90
2023-03-12T11:17:34.807Z,14.10
2023-03-12T11:18:34.833Z,16.70
2023-03-12T11:19:34.800Z,16.90
2023-03-12T11:20:34.773Z,17.20
2023-03-12T11:21:34.746Z,17.10
2023-03-12T11:22:34.764Z,17.20
2023-03-12T11:23:34.750Z,18.50
2023-03-12T11:24:34.753Z,18.80
2023-03-12T11:25:34.715Z,18.60
2023-03-12T11:26:34.724Z,18.10
2023-03-12T11:27:34.672Z,18.20
2023-03-12T11:28:34.705Z,16.80
2023-03-12T11:29:34.779Z,17.30
2023-03-12T11:30:34.717Z,17.20
2023-03-12T11:31:34.653Z,17.20
2023-03-12T11:32:34.688Z,17.50
2023-03-12T11:33:34.649Z,17.20
2023-03-12T11:34:34.617Z,17.30
2023-03-12T11:35:34.601Z,18.00
2023-03-12T11:36:34.569Z,17.70
2023-03-12T11:37:34.593Z,18.10
2023-03-12T11:38:34.542Z,17.80
2023-03-12T11:39:34.532Z,17.30
2023-03-12T11:40:34.572Z,18.60
2023-03-12T11:41:34.511Z,19.00
2023-03-12T11:42:34.518Z,18.80
2023-03-12T11:43:43.326Z,18.70
2023-03-12T11:44:35.473Z,18.70
2023-03-12T11:45:34.461Z,18.50
2023-03-12T11:46:34.560Z,18.90
2023-03-12T11:47:34.528Z,19.20
2023-03-12T11:48:34.471Z,19.00
2023-03-12T11:49:34.417Z,18.40
2023-03-12T11:50:34.404Z,18.90
2023-03-12T11:51:34.401Z,18.10
2023-03-12T11:52:34.369Z,18.90
2023-03-12T11:53:34.416Z,17.80
2023-03-12T11:54:34.340Z,18.50
2023-03-12T11:55:34.352Z,19.00
2023-03-12T11:56:34.345Z,17.70
2023-03-12T11:57:34.302Z,19.30
2023-03-12T11:58:34.323Z,18.50
2023-03-12T11:59:34.306Z,17.90
2023-03-12T12:00:34.273Z,17.90
2023-03-12T12:01:34.259Z,19.00
2023-03-12T12:02:34.248Z,18.20
2023-03-12T12:03:34.282Z,18.80
2023-03-12T12:04:34.241Z,17.80
2023-03-12T12:05:34.234Z,19.00
2023-03-12T12:06:34.193Z,19.30
2023-03-12T12:07:34.217Z,18.60
2023-03-12T12:08:34.218Z,19.80
2023-03-12T12:09:34.178Z,19.10
2023-03-12T12:10:34.165Z,19.70
2023-03-12T12:11:34.125Z,19.40
2023-03-12T12:12:34.115Z,18.90
2023-03-12T12:13:34.113Z,19.50
2023-03-12T12:14:34.098Z,18.10
2023-03-12T12:15:34.106Z,19.00
2023-03-12T12:16:34.186Z,19.30
2023-03-12T12:17:34.055Z,19.40
2023-03-12T12:18:34.040Z,19.30
2023-03-12T12:19:34.030Z,18.90
2023-03-12T12:20:34.037Z,18.50
2023-03-12T12:21:34.009Z,18.70
2023-03-12T12:22:34.013Z,18.90
2023-03-12T12:23:33.982Z,18.60
2023-03-12T12:24:33.967Z,19.30
2023-03-12T12:25:33.993Z,19.20
2023-03-12T12:26:33.939Z,19.00
2023-03-12T12:27:33.934Z,18.30
2023-03-12T12:28:33.910Z,17.60
2023-03-12T12:29:36.595Z,18.80
2023-03-12T12:30:33.890Z,18.80
2023-03-12T12:31:33.913Z,18.20
2023-03-12T12:32:33.890Z,17.70
2023-03-12T12:33:33.854Z,17.70
2023-03-12T12:34:33.823Z,17.20
2023-03-12T12:35:33.847Z,17.50
2023-03-12T12:36:33.833Z,17.00
2023-03-12T12:37:33.835Z,17.00
2023-03-12T12:38:33.773Z,16.60
2023-03-12T12:39:33.758Z,15.90
2023-03-12T12:40:33.763Z,16.10
2023-03-12T12:41:33.746Z,16.50
2023-03-12T12:42:33.758Z,16.20
2023-03-12T12:43:33.715Z,16.10
2023-03-12T12:44:33.688Z,16.20
2023-03-12T12:45:33.677Z,16.70
2023-03-12T12:46:33.716Z,15.70
2023-03-12T12:47:33.653Z,16.40
2023-03-12T12:48:33.662Z,16.40
2023-03-12T12:49:33.680Z,16.50
2023-03-12T12:50:33.632Z,16.40
2023-03-12T12:51:33.626Z,16.00
2023-03-12T12:52:33.614Z,16.40
2023-03-12T12:53:33.628Z,15.80
2023-03-12T12:54:33.572Z,15.60
2023-03-12T12:55:33.537Z,15.70
2023-03-12T12:56:33.557Z,16.30
2023-03-12T12:57:33.521Z,15.90
2023-03-12T12:58:33.496Z,14.20
2023-03-12T12:59:33.498Z,14.70
2023-03-12T13:00:33.492Z,14.20
2023-03-12T13:01:33.537Z,14.50
2023-03-12T13:02:33.461Z,13.70
2023-03-12T13:03:33.427Z,14.40
2023-03-12T13:04:33.438Z,13.50
2023-03-12T13:05:33.404Z,14.40
2023-03-12T13:06:33.403Z,13.60
2023-03-12T13:07:33.361Z,13.60
2023-03-12T13:08:33.350Z,12.90
2023-03-12T13:09:33.417Z,13.40
2023-03-12T13:10:33.360Z,12.20
2023-03-12T13:11:33.317Z,12.30
2023-03-12T13:12:33.316Z,12.20
2023-03-12T13:13:33.289Z,12.70
2023-03-12T13:14:33.264Z,12.70
2023-03-12T13:15:33.258Z,13.00